sensor_id;sensor_type;location;lat;lon;timestamp;pressure;altitude;pressure_sealevel;temperature;humidity
19831;BME280;10076;52.008;4.708;2023-02-23T00:00:14;101394.88;;;10.50;100.00
19831;BME280;10076;52.008;4.708;2023-02-23T00:02:47;101395.25;;;10.58;100.00
19831;BME280;10076;52.008;4.708;2023-02-23T00:05:13;101400.81;;;10.67;100.00
19831;BME280;10076;52.008;4.708;2023-02-23T00:07:41;101397.22;;;10.54;100.00
19831;BME280;10076;52.008;4.708;2023-02-23T00:10:09;101400.63;;;10.56;100.00
19831;BME280;10076;52.008;4.708;2023-02-23T00:12:36;101397.78;;;10.59;100.00
19831;BME280;10076;52.008;4.708;2023-02-23T00:15:01;101395.25;;;10.58;100.00
19831;BME280;10076;52.008;4.708;2023-02-23T00:17:26;101398.53;;;10.47;100.00
19831;BME280;10076;52.008;4.708;2023-02-23T00:19:52;101395.63;;;10.66;100.00
19831;BME280;10076;52.008;4.708;2023-02-23T00:22:18;101396.84;;;10.46;100.00
19831;BME280;10076;52.008;4.708;2023-02-23T00:24:44;101398.56;;;10.61;100.00
19831;BME280;10076;52.008;4.708;2023-02-23T00:27:11;101393.81;;;10.52;100.00
19831;BME280;10076;52.008;4.708;2023-02-23T00:29:42;101394.59;;;10.54;100.00
19831;BME280;10076;52.008;4.708;2023-02-23T00:32:07;101395.34;;;10.56;100.00
19831;BME280;10076;52.008;4.708;2023-02-23T00:34:33;101391.75;;;10.57;100.00
19831;BME280;10076;52.008;4.708;2023-02-23T00:36:59;101391.75;;;10.71;100.00
19831;BME280;10076;52.008;4.708;2023-02-23T00:39:25;101396.47;;;10.66;100.00
19831;BME280;10076;52.008;4.708;2023-02-23T00:41:51;101389.22;;;10.70;100.00
19831;BME280;10076;52.008;4.708;2023-02-23T00:44:17;101385.03;;;10.66;100.00
19831;BME280;10076;52.008;4.708;2023-02-23T00:46:44;101385.03;;;10.66;100.00
19831;BME280;10076;52.008;4.708;2023-02-23T00:49:13;101378.09;;;10.65;100.00
19831;BME280;10076;52.008;4.708;2023-02-23T00:51:38;101381.09;;;10.73;100.00
19831;BME280;10076;52.008;4.708;2023-02-23T00:54:04;101383.84;;;10.71;100.00
19831;BME280;10076;52.008;4.708;2023-02-23T00:56:30;101383.16;;;10.68;100.00
19831;BME280;10076;52.008;4.708;2023-02-23T00:58:56;101388.56;;;10.80;100.00
19831;BME280;10076;52.008;4.708;2023-02-23T01:01:21;101388.19;;;10.72;100.00
19831;BME280;10076;52.008;4.708;2023-02-23T01:03:47;101382.63;;;10.63;100.00
19831;BME280;10076;52.008;4.708;2023-02-23T01:06:15;101395.22;;;10.72;100.00
19831;BME280;10076;52.008;4.708;2023-02-23T01:08:45;101382.06;;;10.58;100.00
19831;BME280;10076;52.008;4.708;2023-02-23T01:11:16;101389.13;;;10.43;100.00
19831;BME280;10076;52.008;4.708;2023-02-23T01:13:43;101397.81;;;10.45;100.00
19831;BME280;10076;52.008;4.708;2023-02-23T01:16:13;101392.13;;;10.51;100.00
19831;BME280;10076;52.008;4.708;2023-02-23T01:18:39;101396.28;;;10.28;100.00
19831;BME280;10076;52.008;4.708;2023-02-23T01:21:16;101399.59;;;10.31;100.00
19831;BME280;10076;52.008;4.708;2023-02-23T01:23:42;101392.97;;;10.24;100.00
19831;BME280;10076;52.008;4.708;2023-02-23T01:26:20;101400.78;;;10.26;100.00
19831;BME280;10076;52.008;4.708;2023-02-23T01:28:50;101398.81;;;10.29;100.00
19831;BME280;10076;52.008;4.708;2023-02-23T01:31:16;101399.59;;;10.31;100.00
19831;BME280;10076;52.008;4.708;2023-02-23T01:33:41;101395.16;;;10.32;100.00
19831;BME280;10076;52.008;4.708;2023-02-23T01:36:07;101396.19;;;10.29;100.00
19831;BME280;10076;52.008;4.708;2023-02-23T01:38:32;101403.47;;;10.39;100.00
19831;BME280;10076;52.008;4.708;2023-02-23T01:40:58;101399.38;;;10.34;100.00
19831;BME280;10076;52.008;4.708;2023-02-23T01:43:23;101398.38;;;10.50;100.00
19831;BME280;10076;52.008;4.708;2023-02-23T01:45:53;101397.41;;;10.51;100.00
19831;BME280;10076;52.008;4.708;2023-02-23T01:48:27;101397.41;;;10.51;100.00
19831;BME280;10076;52.008;4.708;2023-02-23T01:50:57;101397.97;;;10.42;100.00
19831;BME280;10076;52.008;4.708;2023-02-23T01:53:27;101398.91;;;10.41;100.00
19831;BME280;10076;52.008;4.708;2023-02-23T01:55:56;101393.84;;;10.38;100.00
19831;BME280;10076;52.008;4.708;2023-02-23T01:58:23;101397.72;;;10.47;100.00
19831;BME280;10076;52.008;4.708;2023-02-23T02:00:54;101401.38;;;10.44;100.00
19831;BME280;10076;52.008;4.708;2023-02-23T02:03:36;101395.06;;;10.47;100.00
19831;BME280;10076;52.008;4.708;2023-02-23T02:06:03;101404.88;;;10.31;100.00
19831;BME280;10076;52.008;4.708;2023-02-23T02:08:31;101411.00;;;10.32;100.00
19831;BME280;10076;52.008;4.708;2023-02-23T02:10:58;101418.53;;;10.37;100.00
19831;BME280;10076;52.008;4.708;2023-02-23T02:13:31;101412.13;;;10.41;100.00
19831;BME280;10076;52.008;4.708;2023-02-23T02:19:04;101417.03;;;10.47;100.00
19831;BME280;10076;52.008;4.708;2023-02-23T02:21:55;101414.78;;;10.55;100.00
19831;BME280;10076;52.008;4.708;2023-02-23T02:33:16;101413.06;;;10.40;100.00
19831;BME280;10076;52.008;4.708;2023-02-23T02:40:56;101404.56;;;10.35;100.00
19831;BME280;10076;52.008;4.708;2023-02-23T02:46:14;101396.66;;;10.35;100.00
19831;BME280;10076;52.008;4.708;2023-02-23T02:48:58;101398.28;;;10.52;100.00
19831;BME280;10076;52.008;4.708;2023-02-23T02:54:32;101402.13;;;10.32;100.00
19831;BME280;10076;52.008;4.708;2023-02-23T02:57:02;101395.72;;;10.36;100.00
19831;BME280;10076;52.008;4.708;2023-02-23T02:59:29;101401.56;;;10.41;100.00
19831;BME280;10076;52.008;4.708;2023-02-23T03:02:18;101399.13;;;10.38;100.00
19831;BME280;10076;52.008;4.708;2023-02-23T03:05:12;101401.28;;;10.46;100.00
19831;BME280;10076;52.008;4.708;2023-02-23T03:11:03;101391.56;;;10.46;100.00
19831;BME280;10076;52.008;4.708;2023-02-23T03:23:46;101393.06;;;10.36;100.00
19831;BME280;10076;52.008;4.708;2023-02-23T03:26:20;101397.97;;;10.29;100.00
19831;BME280;10076;52.008;4.708;2023-02-23T03:32:02;101403.25;;;10.42;100.00
19831;BME280;10076;52.008;4.708;2023-02-23T03:35:13;101405.72;;;10.32;100.00
19831;BME280;10076;52.008;4.708;2023-02-23T03:38:09;101407.09;;;10.23;100.00
19831;BME280;10076;52.008;4.708;2023-02-23T03:40:55;101417.78;;;10.22;100.00
19831;BME280;10076;52.008;4.708;2023-02-23T03:43:46;101428.50;;;10.19;100.00
19831;BME280;10076;52.008;4.708;2023-02-23T03:46:32;101427.34;;;10.23;100.00
19831;BME280;10076;52.008;4.708;2023-02-23T03:49:19;101432.94;;;10.18;100.00
19831;BME280;10076;52.008;4.708;2023-02-23T03:52:09;101432.16;;;10.16;100.00
19831;BME280;10076;52.008;4.708;2023-02-23T03:54:58;101425.69;;;10.22;100.00
19831;BME280;10076;52.008;4.708;2023-02-23T03:57:46;101433.81;;;10.32;100.00
19831;BME280;10076;52.008;4.708;2023-02-23T04:00:42;101437.38;;;10.32;100.00
19831;BME280;10076;52.008;4.708;2023-02-23T04:03:30;101436.16;;;10.37;100.00
19831;BME280;10076;52.008;4.708;2023-02-23T04:06:17;101434.53;;;10.34;100.00
19831;BME280;10076;52.008;4.708;2023-02-23T04:09:04;101445.69;;;10.39;100.00
19831;BME280;10076;52.008;4.708;2023-02-23T04:11:55;101441.16;;;10.41;100.00
19831;BME280;10076;52.008;4.708;2023-02-23T04:14:58;101437.97;;;10.50;100.00
19831;BME280;10076;52.008;4.708;2023-02-23T04:17:27;101440.63;;;10.50;100.00
19831;BME280;10076;52.008;4.708;2023-02-23T04:19:54;101439.75;;;10.50;100.00
19831;BME280;10076;52.008;4.708;2023-02-23T04:22:20;101441.53;;;10.35;100.00
19831;BME280;10076;52.008;4.708;2023-02-23T04:24:46;101446.06;;;10.33;100.00
19831;BME280;10076;52.008;4.708;2023-02-23T04:27:12;101441.91;;;10.30;100.00
19831;BME280;10076;52.008;4.708;2023-02-23T04:29:38;101443.91;;;10.40;100.00
19831;BME280;10076;52.008;4.708;2023-02-23T04:32:04;101445.69;;;10.39;100.00
19831;BME280;10076;52.008;4.708;2023-02-23T04:34:30;101441.44;;;10.37;100.00
19831;BME280;10076;52.008;4.708;2023-02-23T04:36:55;101441.00;;;10.44;100.00
19831;BME280;10076;52.008;4.708;2023-02-23T04:39:20;101438.66;;;10.54;100.00
19831;BME280;10076;52.008;4.708;2023-02-23T04:41:46;101436.75;;;10.56;100.00
19831;BME280;10076;52.008;4.708;2023-02-23T04:44:14;101439.28;;;10.57;100.00
19831;BME280;10076;52.008;4.708;2023-02-23T04:46:39;101440.16;;;10.58;100.00
19831;BME280;10076;52.008;4.708;2023-02-23T04:49:05;101439.47;;;10.54;100.00
19831;BME280;10076;52.008;4.708;2023-02-23T04:51:30;101441.66;;;10.62;100.00
19831;BME280;10076;52.008;4.708;2023-02-23T04:53:57;101444.13;;;10.65;100.00
19831;BME280;10076;52.008;4.708;2023-02-23T04:56:23;101447.81;;;10.62;100.00
19831;BME280;10076;52.008;4.708;2023-02-23T04:58:48;101449.31;;;10.66;100.00
19831;BME280;10076;52.008;4.708;2023-02-23T05:01:14;101443.56;;;10.60;100.00
19831;BME280;10076;52.008;4.708;2023-02-23T05:03:39;101444.94;;;10.51;100.00
19831;BME280;10076;52.008;4.708;2023-02-23T05:06:05;101449.59;;;10.48;100.00
19831;BME280;10076;52.008;4.708;2023-02-23T05:08:30;101454.00;;;10.47;100.00
19831;BME280;10076;52.008;4.708;2023-02-23T05:10:56;101459.28;;;10.47;100.00
19831;BME280;10076;52.008;4.708;2023-02-23T05:13:21;101468.06;;;10.48;100.00
19831;BME280;10076;52.008;4.708;2023-02-23T05:15:47;101465.13;;;10.38;100.00
19831;BME280;10076;52.008;4.708;2023-02-23T05:18:12;101465.28;;;10.35;100.00
19831;BME280;10076;52.008;4.708;2023-02-23T05:20:41;101476.78;;;10.34;100.00
19831;BME280;10076;52.008;4.708;2023-02-23T05:23:07;101468.84;;;10.34;100.00
19831;BME280;10076;52.008;4.708;2023-02-23T05:25:32;101475.28;;;10.31;100.00
19831;BME280;10076;52.008;4.708;2023-02-23T05:27:57;101477.75;;;10.33;100.00
19831;BME280;10076;52.008;4.708;2023-02-23T05:30:23;101480.38;;;10.33;100.00
19831;BME280;10076;52.008;4.708;2023-02-23T05:32:48;101480.44;;;10.32;100.00
19831;BME280;10076;52.008;4.708;2023-02-23T05:35:15;101485.72;;;10.32;100.00
19831;BME280;10076;52.008;4.708;2023-02-23T05:37:40;101480.13;;;10.23;100.00
19831;BME280;10076;52.008;4.708;2023-02-23T05:40:06;101485.16;;;10.27;100.00
19831;BME280;10076;52.008;4.708;2023-02-23T05:42:31;101485.00;;;10.30;100.00
19831;BME280;10076;52.008;4.708;2023-02-23T05:44:57;101485.66;;;10.33;100.00
19831;BME280;10076;52.008;4.708;2023-02-23T05:47:22;101485.56;;;10.35;100.00
19831;BME280;10076;52.008;4.708;2023-02-23T05:49:47;101489.81;;;10.37;100.00
19831;BME280;10076;52.008;4.708;2023-02-23T05:52:13;101487.06;;;10.39;100.00
19831;BME280;10076;52.008;4.708;2023-02-23T05:54:38;101486.97;;;10.40;100.00
19831;BME280;10076;52.008;4.708;2023-02-23T05:57:03;101484.34;;;10.40;100.00
19831;BME280;10076;52.008;4.708;2023-02-23T05:59:28;101484.94;;;10.45;100.00
19831;BME280;10076;52.008;4.708;2023-02-23T06:01:54;101482.47;;;10.42;100.00
19831;BME280;10076;52.008;4.708;2023-02-23T06:04:19;101483.81;;;10.49;100.00
19831;BME280;10076;52.008;4.708;2023-02-23T06:06:45;101485.94;;;10.43;100.00
19831;BME280;10076;52.008;4.708;2023-02-23T06:09:11;101490.97;;;10.47;100.00
19831;BME280;10076;52.008;4.708;2023-02-23T06:11:36;101493.03;;;10.42;100.00
19831;BME280;10076;52.008;4.708;2023-02-23T06:14:01;101490.13;;;10.47;100.00
19831;BME280;10076;52.008;4.708;2023-02-23T06:16:27;101489.44;;;10.43;100.00
19831;BME280;10076;52.008;4.708;2023-02-23T06:18:52;101490.66;;;10.38;100.00
19831;BME280;10076;52.008;4.708;2023-02-23T06:21:18;101499.06;;;10.44;100.00
19831;BME280;10076;52.008;4.708;2023-02-23T06:23:44;101508.19;;;10.39;100.00
19831;BME280;10076;52.008;4.708;2023-02-23T06:26:10;101508.88;;;10.42;100.00
19831;BME280;10076;52.008;4.708;2023-02-23T06:28:35;101512.44;;;10.41;100.00
19831;BME280;10076;52.008;4.708;2023-02-23T06:31:00;101512.69;;;10.37;100.00
19831;BME280;10076;52.008;4.708;2023-02-23T06:33:26;101508.56;;;10.33;100.00
19831;BME280;10076;52.008;4.708;2023-02-23T06:35:51;101506.69;;;10.35;100.00
19831;BME280;10076;52.008;4.708;2023-02-23T06:38:17;101516.94;;;10.26;100.00
19831;BME280;10076;52.008;4.708;2023-02-23T06:40:42;101515.69;;;10.17;100.00
19831;BME280;10076;52.008;4.708;2023-02-23T06:43:07;101517.47;;;10.17;100.00
19831;BME280;10076;52.008;4.708;2023-02-23T06:45:33;101527.75;;;10.21;100.00
19831;BME280;10076;52.008;4.708;2023-02-23T06:47:59;101525.69;;;10.26;100.00
19831;BME280;10076;52.008;4.708;2023-02-23T06:50:25;101520.25;;;10.29;100.00
19831;BME280;10076;52.008;4.708;2023-02-23T06:52:50;101525.25;;;10.33;100.00
19831;BME280;10076;52.008;4.708;2023-02-23T06:55:15;101528.63;;;10.35;100.00
19831;BME280;10076;52.008;4.708;2023-02-23T06:57:41;101534.06;;;10.48;100.00
19831;BME280;10076;52.008;4.708;2023-02-23T07:00:10;101529.53;;;10.50;100.00
19831;BME280;10076;52.008;4.708;2023-02-23T07:02:39;101533.28;;;10.46;100.00
19831;BME280;10076;52.008;4.708;2023-02-23T07:05:05;101537.66;;;10.47;100.00
19831;BME280;10076;52.008;4.708;2023-02-23T07:07:30;101540.41;;;10.59;100.00
19831;BME280;10076;52.008;4.708;2023-02-23T07:09:57;101546.44;;;10.61;100.00
19831;BME280;10076;52.008;4.708;2023-02-23T07:12:22;101551.94;;;10.72;100.00
19831;BME280;10076;52.008;4.708;2023-02-23T07:14:47;101560.13;;;10.68;100.00
19831;BME280;10076;52.008;4.708;2023-02-23T07:17:12;101574.56;;;10.62;100.00
19831;BME280;10076;52.008;4.708;2023-02-23T07:19:38;101576.44;;;10.60;100.00
19831;BME280;10076;52.008;4.708;2023-02-23T07:22:03;101588.16;;;10.70;100.00
19831;BME280;10076;52.008;4.708;2023-02-23T07:24:29;101596.28;;;10.67;100.00
19831;BME280;10076;52.008;4.708;2023-02-23T07:26:54;101601.72;;;10.64;100.00
19831;BME280;10076;52.008;4.708;2023-02-23T07:29:21;101593.84;;;10.78;100.00
19831;BME280;10076;52.008;4.708;2023-02-23T07:31:48;101591.00;;;10.81;100.00
19831;BME280;10076;52.008;4.708;2023-02-23T07:34:14;101598.09;;;10.81;100.00
19831;BME280;10076;52.008;4.708;2023-02-23T07:36:40;101612.31;;;10.78;100.00
19831;BME280;10076;52.008;4.708;2023-02-23T07:39:05;101604.56;;;10.75;100.00
19831;BME280;10076;52.008;4.708;2023-02-23T07:41:31;101607.16;;;10.91;100.00
19831;BME280;10076;52.008;4.708;2023-02-23T07:43:57;101611.03;;;10.99;100.00
19831;BME280;10076;52.008;4.708;2023-02-23T07:46:23;101612.75;;;11.00;100.00
19831;BME280;10076;52.008;4.708;2023-02-23T07:48:49;101611.41;;;10.93;100.00
19831;BME280;10076;52.008;4.708;2023-02-23T07:51:14;101622.16;;;10.90;100.00
19831;BME280;10076;52.008;4.708;2023-02-23T07:53:41;101617.56;;;10.94;100.00
19831;BME280;10076;52.008;4.708;2023-02-23T07:56:07;101611.03;;;10.99;100.00
19831;BME280;10076;52.008;4.708;2023-02-23T07:58:38;101625.50;;;11.07;100.00
19831;BME280;10076;52.008;4.708;2023-02-23T08:01:04;101619.97;;;11.26;100.00
19831;BME280;10076;52.008;4.708;2023-02-23T08:03:29;101620.81;;;11.40;100.00
19831;BME280;10076;52.008;4.708;2023-02-23T08:05:55;101623.25;;;11.15;100.00
19831;BME280;10076;52.008;4.708;2023-02-23T08:08:20;101626.94;;;11.27;100.00
19831;BME280;10076;52.008;4.708;2023-02-23T08:10:46;101632.25;;;11.41;100.00
19831;BME280;10076;52.008;4.708;2023-02-23T08:13:13;101630.75;;;11.51;100.00
19831;BME280;10076;52.008;4.708;2023-02-23T08:15:39;101630.63;;;11.38;100.00
19831;BME280;10076;52.008;4.708;2023-02-23T08:18:05;101638.25;;;11.58;100.00
19831;BME280;10076;52.008;4.708;2023-02-23T08:20:30;101644.53;;;11.56;100.00
19831;BME280;10076;52.008;4.708;2023-02-23T08:22:56;101647.78;;;11.61;100.00
19831;BME280;10076;52.008;4.708;2023-02-23T08:25:23;101641.44;;;11.63;100.00
19831;BME280;10076;52.008;4.708;2023-02-23T08:27:49;101637.44;;;11.70;100.00
19831;BME280;10076;52.008;4.708;2023-02-23T08:30:23;101640.03;;;11.72;100.00
19831;BME280;10076;52.008;4.708;2023-02-23T08:32:48;101637.94;;;11.76;100.00
19831;BME280;10076;52.008;4.708;2023-02-23T08:35:15;101637.16;;;11.88;100.00
19831;BME280;10076;52.008;4.708;2023-02-23T08:37:40;101646.38;;;12.09;100.00
19831;BME280;10076;52.008;4.708;2023-02-23T08:40:06;101638.81;;;12.17;100.00
19831;BME280;10076;52.008;4.708;2023-02-23T08:42:32;101644.41;;;12.39;100.00
19831;BME280;10076;52.008;4.708;2023-02-23T08:44:57;101645.44;;;12.63;100.00
19831;BME280;10076;52.008;4.708;2023-02-23T08:47:25;101656.69;;;12.93;100.00
19831;BME280;10076;52.008;4.708;2023-02-23T08:49:51;101644.28;;;13.06;100.00
19831;BME280;10076;52.008;4.708;2023-02-23T08:52:19;101645.50;;;13.14;100.00
19831;BME280;10076;52.008;4.708;2023-02-23T08:54:44;101655.22;;;13.01;100.00
19831;BME280;10076;52.008;4.708;2023-02-23T08:57:10;101664.66;;;12.93;100.00
19831;BME280;10076;52.008;4.708;2023-02-23T08:59:35;101660.66;;;12.86;100.00
19831;BME280;10076;52.008;4.708;2023-02-23T09:02:01;101663.38;;;12.72;100.00
19831;BME280;10076;52.008;4.708;2023-02-23T09:04:30;101663.44;;;12.58;100.00
19831;BME280;10076;52.008;4.708;2023-02-23T09:06:56;101660.44;;;12.24;100.00
19831;BME280;10076;52.008;4.708;2023-02-23T09:09:22;101664.69;;;12.26;100.00
19831;BME280;10076;52.008;4.708;2023-02-23T09:11:47;101665.03;;;12.34;100.00
19831;BME280;10076;52.008;4.708;2023-02-23T09:14:12;101674.44;;;12.52;100.00
19831;BME280;10076;52.008;4.708;2023-02-23T09:16:38;101671.31;;;12.72;100.00
19831;BME280;10076;52.008;4.708;2023-02-23T09:19:03;101684.00;;;12.81;100.00
19831;BME280;10076;52.008;4.708;2023-02-23T09:21:28;101686.50;;;12.96;100.00
19831;BME280;10076;52.008;4.708;2023-02-23T09:23:55;101688.94;;;12.73;100.00
19831;BME280;10076;52.008;4.708;2023-02-23T09:26:22;101693.31;;;12.60;100.00
19831;BME280;10076;52.008;4.708;2023-02-23T09:28:48;101692.44;;;12.47;100.00
19831;BME280;10076;52.008;4.708;2023-02-23T09:31:17;101691.47;;;12.48;100.00
19831;BME280;10076;52.008;4.708;2023-02-23T09:33:43;101707.16;;;12.65;100.00
19831;BME280;10076;52.008;4.708;2023-02-23T09:36:13;101704.53;;;12.77;100.00
19831;BME280;10076;52.008;4.708;2023-02-23T09:38:43;101708.03;;;13.04;100.00
19831;BME280;10076;52.008;4.708;2023-02-23T09:47:06;101696.84;;;13.25;100.00
19831;BME280;10076;52.008;4.708;2023-02-23T09:49:36;101695.56;;;13.56;100.00
19831;BME280;10076;52.008;4.708;2023-02-23T09:52:03;101691.44;;;13.64;100.00
19831;BME280;10076;52.008;4.708;2023-02-23T09:54:33;101688.34;;;13.70;100.00
19831;BME280;10076;52.008;4.708;2023-02-23T09:57:02;101688.13;;;13.85;100.00
19831;BME280;10076;52.008;4.708;2023-02-23T09:59:29;101684.28;;;14.02;100.00
19831;BME280;10076;52.008;4.708;2023-02-23T10:02:15;101689.41;;;14.41;100.00
19831;BME280;10076;52.008;4.708;2023-02-23T10:04:49;101690.03;;;14.44;100.00
19831;BME280;10076;52.008;4.708;2023-02-23T10:07:21;101693.59;;;14.32;100.00
19831;BME280;10076;52.008;4.708;2023-02-23T10:18:31;101692.25;;;14.27;100.00
19831;BME280;10076;52.008;4.708;2023-02-23T10:23:38;101696.44;;;13.56;100.00
19831;BME280;10076;52.008;4.708;2023-02-23T10:26:06;101703.22;;;13.60;100.00
19831;BME280;10076;52.008;4.708;2023-02-23T10:28:37;101713.63;;;13.38;100.00
19831;BME280;10076;52.008;4.708;2023-02-23T10:31:35;101712.56;;;13.28;100.00
19831;BME280;10076;52.008;4.708;2023-02-23T10:34:02;101711.56;;;13.05;100.00
19831;BME280;10076;52.008;4.708;2023-02-23T10:36:36;101711.97;;;12.85;100.00
19831;BME280;10076;52.008;4.708;2023-02-23T10:39:05;101719.28;;;12.81;100.00
19831;BME280;10076;52.008;4.708;2023-02-23T10:41:32;101712.44;;;12.91;100.00
19831;BME280;10076;52.008;4.708;2023-02-23T10:43:58;101720.50;;;12.90;100.00
19831;BME280;10076;52.008;4.708;2023-02-23T10:46:30;101716.44;;;13.11;100.00
19831;BME280;10076;52.008;4.708;2023-02-23T10:48:59;101723.63;;;12.96;100.00
19831;BME280;10076;52.008;4.708;2023-02-23T10:51:29;101718.09;;;12.73;100.00
19831;BME280;10076;52.008;4.708;2023-02-23T10:53:57;101719.78;;;12.74;100.00
19831;BME280;10076;52.008;4.708;2023-02-23T10:56:22;101717.91;;;12.76;100.00
19831;BME280;10076;52.008;4.708;2023-02-23T10:58:52;101720.00;;;12.71;100.00
19831;BME280;10076;52.008;4.708;2023-02-23T11:01:39;101723.78;;;12.67;100.00
19831;BME280;10076;52.008;4.708;2023-02-23T11:04:26;101723.75;;;12.81;100.00
19831;BME280;10076;52.008;4.708;2023-02-23T11:07:24;101723.84;;;12.53;100.00
19831;BME280;10076;52.008;4.708;2023-02-23T11:10:38;101723.31;;;12.20;100.00
19831;BME280;10076;52.008;4.708;2023-02-23T11:12:39;101727.66;;;12.35;100.00
19831;BME280;10076;52.008;4.708;2023-02-23T11:15:31;101727.28;;;12.13;100.00
19831;BME280;10076;52.008;4.708;2023-02-23T11:18:02;101729.69;;;12.04;100.00
19831;BME280;10076;52.008;4.708;2023-02-23T11:20:36;101733.84;;;11.80;100.00
19831;BME280;10076;52.008;4.708;2023-02-23T11:23:27;101742.44;;;11.97;100.00
19831;BME280;10076;52.008;4.708;2023-02-23T11:25:58;101743.59;;;11.93;100.00
19831;BME280;10076;52.008;4.708;2023-02-23T11:28:33;101746.41;;;11.90;100.00
19831;BME280;10076;52.008;4.708;2023-02-23T11:33:39;101746.81;;;12.12;100.00
19831;BME280;10076;52.008;4.708;2023-02-23T11:36:24;101740.81;;;12.37;100.00
19831;BME280;10076;52.008;4.708;2023-02-23T11:41:42;101721.94;;;13.20;100.00
19831;BME280;10076;52.008;4.708;2023-02-23T11:44:18;101721.16;;;13.57;100.00
19831;BME280;10076;52.008;4.708;2023-02-23T11:46:43;101710.88;;;13.65;100.00
19831;BME280;10076;52.008;4.708;2023-02-23T11:49:17;101716.38;;;13.86;100.00
19831;BME280;10076;52.008;4.708;2023-02-23T11:51:47;101720.00;;;13.73;100.00
19831;BME280;10076;52.008;4.708;2023-02-23T11:54:33;101717.25;;;13.75;100.00
19831;BME280;10076;52.008;4.708;2023-02-23T11:56:59;101721.28;;;13.68;100.00
19831;BME280;10076;52.008;4.708;2023-02-23T11:59:36;101720.63;;;13.52;100.00
19831;BME280;10076;52.008;4.708;2023-02-23T12:02:20;101718.59;;;13.30;100.00
19831;BME280;10076;52.008;4.708;2023-02-23T12:04:48;101718.06;;;13.25;100.00
19831;BME280;10076;52.008;4.708;2023-02-23T12:07:51;101722.81;;;13.08;100.00
19831;BME280;10076;52.008;4.708;2023-02-23T12:10:23;101722.44;;;13.00;100.00
19831;BME280;10076;52.008;4.708;2023-02-23T12:13:11;101724.69;;;12.80;100.00
19831;BME280;10076;52.008;4.708;2023-02-23T12:15:48;101727.94;;;12.71;100.00
19831;BME280;10076;52.008;4.708;2023-02-23T12:23:37;101730.41;;;13.51;100.00
19831;BME280;10076;52.008;4.708;2023-02-23T12:26:18;101726.81;;;13.65;100.00
19831;BME280;10076;52.008;4.708;2023-02-23T12:28:57;101721.59;;;13.76;100.00
19831;BME280;10076;52.008;4.708;2023-02-23T12:31:36;101722.97;;;13.93;100.00
19831;BME280;10076;52.008;4.708;2023-02-23T12:34:38;101720.16;;;14.07;100.00
19831;BME280;10076;52.008;4.708;2023-02-23T12:37:29;101709.03;;;14.27;100.00
19831;BME280;10076;52.008;4.708;2023-02-23T12:40:22;101708.25;;;14.61;100.00
19831;BME280;10076;52.008;4.708;2023-02-23T12:45:28;101713.16;;;15.81;100.00
19831;BME280;10076;52.008;4.708;2023-02-23T12:48:05;101714.88;;;16.78;100.00
19831;BME280;10076;52.008;4.708;2023-02-23T12:50:56;101719.22;;;17.62;100.00
19831;BME280;10076;52.008;4.708;2023-02-23T12:53:38;101718.53;;;17.81;100.00
19831;BME280;10076;52.008;4.708;2023-02-23T12:56:37;101714.38;;;17.27;100.00
19831;BME280;10076;52.008;4.708;2023-02-23T13:01:56;101706.22;;;16.65;100.00
19831;BME280;10076;52.008;4.708;2023-02-23T13:04:55;101711.44;;;17.30;100.00
19831;BME280;10076;52.008;4.708;2023-02-23T13:07:53;101711.28;;;17.51;100.00
19831;BME280;10076;52.008;4.708;2023-02-23T13:10:31;101702.88;;;16.84;100.00
19831;BME280;10076;52.008;4.708;2023-02-23T13:13:16;101706.03;;;16.03;100.00
19831;BME280;10076;52.008;4.708;2023-02-23T13:15:58;101707.44;;;15.52;100.00
19831;BME280;10076;52.008;4.708;2023-02-23T13:18:45;101708.94;;;14.99;100.00
19831;BME280;10076;52.008;4.708;2023-02-23T13:21:28;101710.19;;;14.82;100.00
19831;BME280;10076;52.008;4.708;2023-02-23T13:24:04;101713.78;;;14.35;100.00
19831;BME280;10076;52.008;4.708;2023-02-23T13:29:37;101704.34;;;14.18;100.00
19831;BME280;10076;52.008;4.708;2023-02-23T13:32:10;101720.19;;;13.95;100.00
19831;BME280;10076;52.008;4.708;2023-02-23T13:34:52;101710.66;;;13.92;100.00
19831;BME280;10076;52.008;4.708;2023-02-23T13:37:26;101714.47;;;14.01;100.00
19831;BME280;10076;52.008;4.708;2023-02-23T13:39:58;101707.75;;;13.95;100.00
19831;BME280;10076;52.008;4.708;2023-02-23T13:56:24;101713.41;;;13.91;100.00
19831;BME280;10076;52.008;4.708;2023-02-23T13:58:53;101704.38;;;13.93;100.00
19831;BME280;10076;52.008;4.708;2023-02-23T14:01:26;101720.00;;;13.98;100.00
19831;BME280;10076;52.008;4.708;2023-02-23T14:03:56;101704.41;;;13.69;100.00
19831;BME280;10076;52.008;4.708;2023-02-23T14:06:24;101719.03;;;13.49;100.00
19831;BME280;10076;52.008;4.708;2023-02-23T14:08:53;101722.22;;;13.42;100.00
19831;BME280;10076;52.008;4.708;2023-02-23T14:11:48;101715.81;;;13.32;100.00
19831;BME280;10076;52.008;4.708;2023-02-23T14:22:26;101707.06;;;13.56;100.00
19831;BME280;10076;52.008;4.708;2023-02-23T14:28:00;101712.97;;;13.97;100.00
19831;BME280;10076;52.008;4.708;2023-02-23T14:30:28;101707.03;;;13.93;100.00
19831;BME280;10076;52.008;4.708;2023-02-23T14:32:53;101702.00;;;14.01;100.00
19831;BME280;10076;52.008;4.708;2023-02-23T14:40:59;101705.84;;;14.10;100.00
19831;BME280;10076;52.008;4.708;2023-02-23T14:46:03;101695.97;;;14.12;100.00
19831;BME280;10076;52.008;4.708;2023-02-23T14:48:33;101700.34;;;13.88;100.00